TRP532 SYCJ-MKJP
Flight info
| Callsign | TRP532 |
|---|---|
| Flight time | 3h 29m |
| Altitude | 36000 |
| Route | TIM DCT KORTO UG449 ANADA L343 SATOE UL349 LORBI |
| Aircraft | A320/M-SDE3FGHIRWY/LB1 |
Departure
| Time | 2026-05-07 13:35 |
|---|---|
| Airport | Cheddi Jagan International Airport (SYCJ) |
Arrival
| Time | 2026-05-07 17:05 |
|---|---|
| Airport | Norman Manley International Airport (MKJP) |
| Time | Latitude | Longitude | Altitude | Speed | Heading |
|---|---|---|---|---|---|
| 2026-05-07 13:22 | 6.50345 | -58.25216 | 111 ft | 0 kts | 315° |
| 2026-05-07 13:28 | 6.50333 | -58.25201 | 111 ft | 4 kts | 249° |
| 2026-05-07 13:28 | 6.50350 | -58.25183 | 111 ft | 4 kts | 220° |
| 2026-05-07 13:28 | 6.50359 | -58.25175 | 111 ft | 1 kts | 225° |
| 2026-05-07 13:29 | 6.50360 | -58.25175 | 111 ft | 0 kts | 225° |
| 2026-05-07 13:29 | 6.50359 | -58.25175 | 111 ft | 0 kts | 225° |
| 2026-05-07 13:31 | 6.50337 | -58.25181 | 111 ft | 6 kts | 184° |
| 2026-05-07 13:31 | 6.50280 | -58.25216 | 111 ft | 13 kts | 227° |
| 2026-05-07 13:31 | 6.50205 | -58.25265 | 111 ft | 13 kts | 152° |
| 2026-05-07 13:32 | 6.50135 | -58.25286 | 111 ft | 13 kts | 228° |
| 2026-05-07 13:32 | 6.50057 | -58.25366 | 111 ft | 18 kts | 225° |
| 2026-05-07 13:32 | 6.49959 | -58.25465 | 111 ft | 22 kts | 225° |
| 2026-05-07 13:32 | 6.49844 | -58.25583 | 111 ft | 26 kts | 226° |
| 2026-05-07 13:33 | 6.49711 | -58.25716 | 111 ft | 27 kts | 225° |
| 2026-05-07 13:33 | 6.49580 | -58.25848 | 111 ft | 26 kts | 225° |
| 2026-05-07 13:33 | 6.49454 | -58.25974 | 111 ft | 25 kts | 225° |
| 2026-05-07 13:33 | 6.49332 | -58.26094 | 111 ft | 23 kts | 224° |
| 2026-05-07 13:34 | 6.49233 | -58.26116 | 111 ft | 13 kts | 135° |
| 2026-05-07 13:34 | 6.49417 | -58.25854 | 111 ft | 72 kts | 45° |
| 2026-05-07 13:34 | 6.49920 | -58.25352 | 111 ft | 130 kts | 45° |
| 2026-05-07 13:35 | 6.50646 | -58.24625 | 282 ft | 153 kts | 45° |
| 2026-05-07 13:35 | 6.51394 | -58.23876 | 887 ft | 152 kts | 45° |
| 2026-05-07 13:35 | 6.52148 | -58.23121 | 1509 ft | 154 kts | 45° |
| 2026-05-07 13:35 | 6.53010 | -58.22486 | 2056 ft | 158 kts | 30° |
| 2026-05-07 13:36 | 6.54084 | -58.22164 | 2373 ft | 166 kts | 9° |
| 2026-05-07 13:36 | 6.55278 | -58.22292 | 2654 ft | 182 kts | 347° |
| 2026-05-07 13:36 | 6.56465 | -58.22886 | 2874 ft | 199 kts | 335° |
| 2026-05-07 13:36 | 6.57777 | -58.23526 | 3058 ft | 222 kts | 337° |
| 2026-05-07 13:37 | 6.59289 | -58.24241 | 3146 ft | 259 kts | 337° |
| 2026-05-07 13:37 | 6.60924 | -58.25047 | 4114 ft | 260 kts | 336° |
| 2026-05-07 13:37 | 6.62561 | -58.25870 | 5050 ft | 268 kts | 336° |
| 2026-05-07 13:37 | 6.64237 | -58.26724 | 6058 ft | 270 kts | 336° |
| 2026-05-07 13:38 | 6.65931 | -58.27591 | 6924 ft | 277 kts | 336° |
| 2026-05-07 13:38 | 6.67664 | -58.28477 | 7848 ft | 281 kts | 336° |
| 2026-05-07 13:38 | 6.69399 | -58.29367 | 8676 ft | 287 kts | 336° |
| 2026-05-07 13:38 | 6.71193 | -58.30289 | 9487 ft | 291 kts | 336° |
| 2026-05-07 13:39 | 6.73017 | -58.31226 | 10241 ft | 298 kts | 336° |
| 2026-05-07 13:39 | 6.74936 | -58.32212 | 10473 ft | 323 kts | 335° |
| 2026-05-07 13:39 | 6.76982 | -58.33268 | 10971 ft | 333 kts | 335° |
| 2026-05-07 13:39 | 6.79053 | -58.34337 | 11661 ft | 337 kts | 335° |
| 2026-05-07 13:40 | 6.81160 | -58.35424 | 12283 ft | 342 kts | 335° |
| 2026-05-07 13:40 | 6.83284 | -58.36520 | 12977 ft | 344 kts | 335° |
| 2026-05-07 13:40 | 6.85423 | -58.37621 | 13617 ft | 346 kts | 335° |
| 2026-05-07 13:40 | 6.87576 | -58.38730 | 14214 ft | 349 kts | 334° |
| 2026-05-07 13:41 | 6.89749 | -58.39850 | 14783 ft | 352 kts | 334° |
| 2026-05-07 13:41 | 6.91940 | -58.40980 | 15355 ft | 355 kts | 334° |
| 2026-05-07 13:41 | 6.94144 | -58.42117 | 15898 ft | 358 kts | 334° |
| 2026-05-07 13:41 | 6.96367 | -58.43264 | 16437 ft | 360 kts | 334° |
| 2026-05-07 13:42 | 6.98601 | -58.44416 | 16946 ft | 363 kts | 333° |
| 2026-05-07 13:42 | 7.00854 | -58.45578 | 17459 ft | 365 kts | 333° |
| 2026-05-07 13:42 | 7.03120 | -58.46748 | 17961 ft | 367 kts | 333° |
| 2026-05-07 13:42 | 7.05405 | -58.47927 | 18421 ft | 370 kts | 333° |
| 2026-05-07 13:43 | 7.07706 | -58.49114 | 18896 ft | 372 kts | 333° |
| 2026-05-07 13:43 | 7.09991 | -58.50294 | 19352 ft | 375 kts | 333° |
| 2026-05-07 13:43 | 7.12351 | -58.51512 | 19776 ft | 378 kts | 332° |
| 2026-05-07 13:43 | 7.14670 | -58.52709 | 20200 ft | 381 kts | 332° |
| 2026-05-07 13:44 | 7.17035 | -58.53930 | 20663 ft | 382 kts | 332° |
| 2026-05-07 13:44 | 7.19409 | -58.55155 | 21067 ft | 385 kts | 332° |
| 2026-05-07 13:44 | 7.21803 | -58.56392 | 21492 ft | 387 kts | 332° |
| 2026-05-07 13:44 | 7.24209 | -58.57634 | 21885 ft | 390 kts | 332° |
| 2026-05-07 13:45 | 7.26631 | -58.58885 | 22282 ft | 392 kts | 332° |
| 2026-05-07 13:45 | 7.29064 | -58.60142 | 22656 ft | 394 kts | 332° |
| 2026-05-07 13:45 | 7.31507 | -58.61404 | 23015 ft | 396 kts | 331° |
| 2026-05-07 13:45 | 7.33971 | -58.62677 | 23378 ft | 398 kts | 331° |
| 2026-05-07 13:46 | 7.36443 | -58.63955 | 23721 ft | 400 kts | 331° |
| 2026-05-07 13:46 | 7.38926 | -58.65238 | 24063 ft | 402 kts | 331° |
| 2026-05-07 13:46 | 7.41417 | -58.66527 | 24380 ft | 404 kts | 331° |
| 2026-05-07 13:46 | 7.43925 | -58.67825 | 24686 ft | 406 kts | 331° |
| 2026-05-07 13:47 | 7.46447 | -58.69129 | 24990 ft | 408 kts | 331° |
| 2026-05-07 13:47 | 7.48978 | -58.70438 | 25285 ft | 410 kts | 331° |
| 2026-05-07 13:47 | 7.51524 | -58.71755 | 25573 ft | 412 kts | 331° |
| 2026-05-07 13:47 | 7.54092 | -58.73083 | 25867 ft | 414 kts | 331° |
| 2026-05-07 13:48 | 7.56625 | -58.74393 | 26144 ft | 416 kts | 331° |
| 2026-05-07 13:48 | 7.59205 | -58.75726 | 26425 ft | 418 kts | 331° |
| 2026-05-07 13:48 | 7.61800 | -58.77068 | 26694 ft | 420 kts | 331° |
| 2026-05-07 13:48 | 7.64401 | -58.78415 | 26961 ft | 422 kts | 331° |
| 2026-05-07 13:49 | 7.67021 | -58.79772 | 27235 ft | 423 kts | 331° |
| 2026-05-07 13:49 | 7.69642 | -58.81126 | 27488 ft | 425 kts | 331° |
| 2026-05-07 13:49 | 7.72278 | -58.82492 | 27746 ft | 427 kts | 331° |
| 2026-05-07 13:49 | 7.74927 | -58.83864 | 28014 ft | 428 kts | 331° |
| 2026-05-07 13:50 | 7.77592 | -58.85244 | 28267 ft | 430 kts | 331° |
| 2026-05-07 13:50 | 7.80260 | -58.86626 | 28514 ft | 432 kts | 331° |
| 2026-05-07 13:50 | 7.82902 | -58.87995 | 28749 ft | 434 kts | 331° |
| 2026-05-07 13:50 | 7.85592 | -58.89388 | 28986 ft | 435 kts | 331° |
| 2026-05-07 13:51 | 7.88296 | -58.90789 | 29231 ft | 437 kts | 331° |
| 2026-05-07 13:51 | 7.91002 | -58.92192 | 29477 ft | 438 kts | 331° |
| 2026-05-07 13:51 | 7.93722 | -58.93601 | 29696 ft | 440 kts | 331° |
| 2026-05-07 13:51 | 7.96446 | -58.95013 | 29925 ft | 441 kts | 331° |
| 2026-05-07 13:52 | 7.99187 | -58.96434 | 30158 ft | 443 kts | 331° |
| 2026-05-07 13:52 | 8.01912 | -58.97846 | 30524 ft | 440 kts | 331° |
| 2026-05-07 13:52 | 8.04642 | -58.99261 | 30766 ft | 441 kts | 330° |
| 2026-05-07 13:52 | 8.07377 | -59.00680 | 31004 ft | 442 kts | 330° |
| 2026-05-07 13:53 | 8.10112 | -59.02099 | 31230 ft | 443 kts | 330° |
| 2026-05-07 13:53 | 8.12856 | -59.03524 | 31432 ft | 444 kts | 330° |
| 2026-05-07 13:53 | 8.15608 | -59.04952 | 31672 ft | 445 kts | 330° |
| 2026-05-07 13:53 | 8.18363 | -59.06382 | 31884 ft | 446 kts | 330° |
| 2026-05-07 13:54 | 8.21125 | -59.07816 | 32096 ft | 447 kts | 330° |
| 2026-05-07 13:54 | 8.23898 | -59.09255 | 32324 ft | 448 kts | 330° |
| 2026-05-07 13:54 | 8.26673 | -59.10696 | 32533 ft | 450 kts | 330° |
| 2026-05-07 13:54 | 8.29465 | -59.12146 | 32734 ft | 451 kts | 330° |
| 2026-05-07 13:55 | 8.32257 | -59.13596 | 32928 ft | 452 kts | 330° |
| 2026-05-07 13:55 | 8.35056 | -59.15050 | 33100 ft | 453 kts | 330° |
| 2026-05-07 13:55 | 8.37862 | -59.16508 | 33284 ft | 453 kts | 330° |
| 2026-05-07 13:55 | 8.40669 | -59.17968 | 33440 ft | 455 kts | 330° |
| 2026-05-07 13:56 | 8.43485 | -59.19431 | 33615 ft | 455 kts | 330° |
| 2026-05-07 13:56 | 8.46304 | -59.20897 | 33768 ft | 457 kts | 330° |
| 2026-05-07 13:56 | 8.49131 | -59.22367 | 33935 ft | 457 kts | 330° |
| 2026-05-07 13:56 | 8.51967 | -59.23842 | 34117 ft | 457 kts | 330° |
| 2026-05-07 13:57 | 8.54762 | -59.25296 | 34326 ft | 457 kts | 330° |
| 2026-05-07 13:57 | 8.57578 | -59.26761 | 34544 ft | 456 kts | 330° |
| 2026-05-07 13:57 | 8.60402 | -59.28230 | 34735 ft | 456 kts | 330° |
| 2026-05-07 13:57 | 8.63216 | -59.29695 | 34943 ft | 455 kts | 330° |
| 2026-05-07 13:58 | 8.66033 | -59.31162 | 35130 ft | 454 kts | 330° |
| 2026-05-07 13:58 | 8.68841 | -59.32623 | 35322 ft | 454 kts | 330° |
| 2026-05-07 13:58 | 8.71641 | -59.34081 | 35517 ft | 453 kts | 330° |
| 2026-05-07 13:58 | 8.74442 | -59.35540 | 35708 ft | 452 kts | 330° |
| 2026-05-07 13:59 | 8.77241 | -59.36998 | 35926 ft | 452 kts | 330° |
| 2026-05-07 13:59 | 8.81910 | -59.39431 | 36013 ft | 454 kts | 330° |
| 2026-05-07 14:00 | 8.87506 | -59.42357 | 36021 ft | 452 kts | 329° |
| 2026-05-07 14:00 | 8.92532 | -59.46073 | 36024 ft | 447 kts | 314° |
| 2026-05-07 14:01 | 8.96628 | -59.50775 | 36029 ft | 445 kts | 308° |
| 2026-05-07 14:01 | 9.00577 | -59.55596 | 36030 ft | 445 kts | 307° |
| 2026-05-07 14:02 | 9.04490 | -59.60444 | 36031 ft | 445 kts | 307° |
| 2026-05-07 14:02 | 9.08391 | -59.65293 | 36032 ft | 444 kts | 307° |
| 2026-05-07 14:03 | 9.12288 | -59.70146 | 36033 ft | 444 kts | 307° |
| 2026-05-07 14:03 | 9.16185 | -59.75005 | 36033 ft | 444 kts | 307° |
| 2026-05-07 14:04 | 9.20051 | -59.79830 | 36036 ft | 444 kts | 307° |
| 2026-05-07 14:04 | 9.23947 | -59.84698 | 36043 ft | 445 kts | 307° |
| 2026-05-07 14:05 | 9.27836 | -59.89561 | 36043 ft | 444 kts | 307° |
| 2026-05-07 14:05 | 9.31718 | -59.94421 | 36044 ft | 444 kts | 306° |
| 2026-05-07 14:06 | 9.35602 | -59.99284 | 36044 ft | 443 kts | 306° |
| 2026-05-07 14:06 | 9.39483 | -60.04145 | 36045 ft | 444 kts | 306° |
| 2026-05-07 14:07 | 9.43370 | -60.09016 | 36045 ft | 444 kts | 306° |
| 2026-05-07 14:07 | 9.47228 | -60.13851 | 36046 ft | 444 kts | 306° |
| 2026-05-07 14:08 | 9.51133 | -60.18748 | 36047 ft | 444 kts | 306° |
| 2026-05-07 14:08 | 9.54987 | -60.23580 | 36047 ft | 443 kts | 306° |
| 2026-05-07 14:09 | 9.58857 | -60.28435 | 36047 ft | 443 kts | 306° |
| 2026-05-07 14:09 | 9.62724 | -60.33290 | 36048 ft | 444 kts | 306° |
| 2026-05-07 14:10 | 9.66606 | -60.38164 | 36048 ft | 444 kts | 306° |
| 2026-05-07 14:10 | 9.70481 | -60.43033 | 36048 ft | 444 kts | 306° |
| 2026-05-07 14:11 | 9.74355 | -60.47902 | 36049 ft | 444 kts | 306° |
| 2026-05-07 14:11 | 9.78232 | -60.52778 | 36049 ft | 443 kts | 306° |
| 2026-05-07 14:12 | 9.82102 | -60.57646 | 36049 ft | 443 kts | 306° |
| 2026-05-07 14:12 | 9.85978 | -60.62524 | 36049 ft | 443 kts | 306° |
| 2026-05-07 14:13 | 9.89845 | -60.67392 | 36050 ft | 443 kts | 306° |
| 2026-05-07 14:13 | 9.93710 | -60.72262 | 36050 ft | 444 kts | 306° |
| 2026-05-07 14:14 | 9.97555 | -60.77106 | 36050 ft | 443 kts | 306° |
| 2026-05-07 14:14 | 10.01423 | -60.81981 | 36050 ft | 443 kts | 306° |
| 2026-05-07 14:15 | 10.05275 | -60.86840 | 36050 ft | 441 kts | 306° |
| 2026-05-07 14:15 | 10.09127 | -60.91700 | 36051 ft | 442 kts | 306° |
| 2026-05-07 14:16 | 10.12972 | -60.96554 | 36051 ft | 441 kts | 306° |
| 2026-05-07 14:16 | 10.16809 | -61.01399 | 36050 ft | 440 kts | 306° |
| 2026-05-07 14:17 | 10.20642 | -61.06242 | 36051 ft | 440 kts | 306° |
| 2026-05-07 14:17 | 10.24484 | -61.11099 | 36051 ft | 441 kts | 306° |
| 2026-05-07 14:18 | 10.28322 | -61.15951 | 36051 ft | 440 kts | 306° |
| 2026-05-07 14:18 | 10.32157 | -61.20802 | 36051 ft | 440 kts | 306° |
| 2026-05-07 14:19 | 10.35707 | -61.25294 | 36051 ft | 440 kts | 306° |
| 2026-05-07 14:19 | 10.39516 | -61.30116 | 36051 ft | 440 kts | 306° |
| 2026-05-07 14:20 | 10.43350 | -61.34970 | 36052 ft | 441 kts | 306° |
| 2026-05-07 14:20 | 10.47741 | -61.39353 | 36051 ft | 447 kts | 319° |
| 2026-05-07 14:21 | 10.52999 | -61.42763 | 36052 ft | 450 kts | 326° |
| 2026-05-07 14:21 | 10.58380 | -61.46017 | 36052 ft | 450 kts | 326° |
| 2026-05-07 14:22 | 10.63763 | -61.49262 | 36051 ft | 450 kts | 326° |
| 2026-05-07 14:22 | 10.69150 | -61.52500 | 36052 ft | 450 kts | 326° |
| 2026-05-07 14:23 | 10.74539 | -61.55735 | 36051 ft | 449 kts | 326° |
| 2026-05-07 14:23 | 10.79933 | -61.58969 | 36051 ft | 450 kts | 326° |
| 2026-05-07 14:24 | 10.85287 | -61.62177 | 36051 ft | 450 kts | 326° |
| 2026-05-07 14:24 | 10.90701 | -61.65419 | 36051 ft | 449 kts | 326° |
| 2026-05-07 14:25 | 10.96053 | -61.68623 | 36051 ft | 449 kts | 326° |
| 2026-05-07 14:25 | 11.01432 | -61.71843 | 36051 ft | 449 kts | 326° |
| 2026-05-07 14:26 | 11.06816 | -61.75065 | 36051 ft | 449 kts | 326° |
| 2026-05-07 14:26 | 11.12198 | -61.78287 | 36050 ft | 448 kts | 326° |
| 2026-05-07 14:27 | 11.17582 | -61.81511 | 36050 ft | 448 kts | 325° |
| 2026-05-07 14:27 | 11.22952 | -61.84727 | 36050 ft | 448 kts | 325° |
| 2026-05-07 14:28 | 11.28286 | -61.87922 | 36050 ft | 447 kts | 325° |
| 2026-05-07 14:28 | 11.33687 | -61.91159 | 36050 ft | 447 kts | 325° |
| 2026-05-07 14:29 | 11.39008 | -61.94350 | 36050 ft | 447 kts | 325° |
| 2026-05-07 14:29 | 11.44404 | -61.97586 | 36050 ft | 447 kts | 325° |
| 2026-05-07 14:30 | 11.49733 | -62.00783 | 36051 ft | 447 kts | 325° |
| 2026-05-07 14:30 | 11.55087 | -62.03997 | 36051 ft | 447 kts | 324° |
| 2026-05-07 14:31 | 11.60442 | -62.07212 | 36051 ft | 446 kts | 324° |
| 2026-05-07 14:31 | 11.65792 | -62.10426 | 36051 ft | 446 kts | 324° |
| 2026-05-07 14:32 | 11.71144 | -62.13643 | 36051 ft | 446 kts | 324° |
| 2026-05-07 14:32 | 11.76497 | -62.16862 | 36051 ft | 446 kts | 324° |
| 2026-05-07 14:33 | 11.81833 | -62.20094 | 36051 ft | 446 kts | 324° |
| 2026-05-07 14:33 | 11.87167 | -62.23345 | 36051 ft | 446 kts | 324° |
| 2026-05-07 14:34 | 11.92504 | -62.26572 | 36051 ft | 446 kts | 324° |
| 2026-05-07 14:34 | 11.97851 | -62.29799 | 36051 ft | 446 kts | 324° |
| 2026-05-07 14:35 | 12.03161 | -62.33002 | 36052 ft | 446 kts | 324° |
| 2026-05-07 14:35 | 12.08509 | -62.36228 | 36054 ft | 446 kts | 324° |
| 2026-05-07 14:36 | 12.13852 | -62.39452 | 36054 ft | 446 kts | 324° |
| 2026-05-07 14:36 | 12.19200 | -62.42681 | 36054 ft | 446 kts | 324° |
| 2026-05-07 14:37 | 12.24537 | -62.45904 | 36055 ft | 446 kts | 324° |
| 2026-05-07 14:37 | 12.32556 | -62.50750 | 36055 ft | 446 kts | 324° |
| 2026-05-07 14:38 | 12.37890 | -62.53976 | 36056 ft | 446 kts | 324° |
| 2026-05-07 14:38 | 12.43226 | -62.57204 | 36056 ft | 445 kts | 324° |
| 2026-05-07 14:39 | 12.48549 | -62.60427 | 36056 ft | 445 kts | 324° |
| 2026-05-07 14:39 | 12.53879 | -62.63654 | 36057 ft | 444 kts | 324° |
| 2026-05-07 14:40 | 12.59167 | -62.66858 | 36057 ft | 444 kts | 324° |
| 2026-05-07 14:40 | 12.64490 | -62.70085 | 36058 ft | 444 kts | 324° |
| 2026-05-07 14:41 | 12.69810 | -62.73311 | 36058 ft | 444 kts | 324° |
| 2026-05-07 14:41 | 12.75123 | -62.76535 | 36058 ft | 444 kts | 324° |
| 2026-05-07 14:42 | 12.80440 | -62.79763 | 36059 ft | 444 kts | 324° |
| 2026-05-07 14:42 | 12.85745 | -62.82984 | 36059 ft | 443 kts | 324° |
| 2026-05-07 14:43 | 12.91052 | -62.86210 | 36059 ft | 443 kts | 324° |
| 2026-05-07 14:43 | 12.96352 | -62.89433 | 36060 ft | 443 kts | 324° |
| 2026-05-07 14:44 | 13.01658 | -62.92660 | 36060 ft | 443 kts | 324° |
| 2026-05-07 14:44 | 13.06964 | -62.95889 | 36060 ft | 443 kts | 324° |
| 2026-05-07 14:45 | 13.11368 | -62.98571 | 36060 ft | 443 kts | 324° |
| 2026-05-07 14:45 | 13.17540 | -63.02331 | 36061 ft | 443 kts | 324° |
| 2026-05-07 14:46 | 13.22839 | -63.05561 | 36059 ft | 443 kts | 324° |
| 2026-05-07 14:46 | 13.27275 | -63.08266 | 36059 ft | 442 kts | 324° |
| 2026-05-07 14:47 | 13.32531 | -63.11473 | 36060 ft | 442 kts | 324° |
| 2026-05-07 14:47 | 13.37816 | -63.14698 | 36060 ft | 442 kts | 324° |
| 2026-05-07 14:48 | 13.43111 | -63.17930 | 36061 ft | 442 kts | 324° |
| 2026-05-07 14:48 | 13.48400 | -63.21159 | 36064 ft | 442 kts | 324° |
| 2026-05-07 14:49 | 13.53692 | -63.24393 | 36072 ft | 442 kts | 324° |
| 2026-05-07 14:49 | 13.58978 | -63.27625 | 36080 ft | 441 kts | 324° |
| 2026-05-07 14:50 | 13.64253 | -63.30853 | 36085 ft | 442 kts | 324° |
| 2026-05-07 14:50 | 13.69500 | -63.34065 | 36085 ft | 442 kts | 324° |
| 2026-05-07 14:51 | 13.74787 | -63.37301 | 36085 ft | 442 kts | 324° |
| 2026-05-07 14:51 | 13.80069 | -63.40536 | 36086 ft | 442 kts | 324° |
| 2026-05-07 14:52 | 13.85341 | -63.43766 | 36086 ft | 441 kts | 324° |
| 2026-05-07 14:52 | 13.90615 | -63.47000 | 36086 ft | 441 kts | 324° |
| 2026-05-07 14:53 | 13.95884 | -63.50231 | 36086 ft | 440 kts | 324° |
| 2026-05-07 14:53 | 14.01148 | -63.53462 | 36071 ft | 441 kts | 324° |
| 2026-05-07 14:54 | 14.06407 | -63.56691 | 36073 ft | 440 kts | 324° |
| 2026-05-07 14:54 | 14.11674 | -63.59927 | 36076 ft | 441 kts | 324° |
| 2026-05-07 14:55 | 14.16933 | -63.63166 | 36077 ft | 440 kts | 324° |
| 2026-05-07 14:55 | 14.22190 | -63.66413 | 36077 ft | 440 kts | 324° |
| 2026-05-07 14:56 | 14.27444 | -63.69658 | 36077 ft | 440 kts | 324° |
| 2026-05-07 14:56 | 14.32694 | -63.72899 | 36077 ft | 439 kts | 324° |
| 2026-05-07 14:57 | 14.37911 | -63.76121 | 36078 ft | 440 kts | 324° |
| 2026-05-07 14:57 | 14.43164 | -63.79364 | 36078 ft | 440 kts | 324° |
| 2026-05-07 14:58 | 14.48419 | -63.82609 | 36078 ft | 439 kts | 324° |
| 2026-05-07 14:58 | 14.53662 | -63.85849 | 36079 ft | 440 kts | 324° |
| 2026-05-07 14:59 | 14.58911 | -63.89092 | 36079 ft | 439 kts | 324° |
| 2026-05-07 14:59 | 14.64151 | -63.92333 | 36075 ft | 440 kts | 324° |
| 2026-05-07 15:00 | 14.69395 | -63.95577 | 36072 ft | 439 kts | 324° |
| 2026-05-07 15:00 | 14.74638 | -63.98822 | 36073 ft | 438 kts | 325° |
| 2026-05-07 15:01 | 14.79872 | -64.02064 | 36073 ft | 438 kts | 325° |
| 2026-05-07 15:01 | 14.85084 | -64.05295 | 36084 ft | 435 kts | 326° |
| 2026-05-07 15:02 | 14.90281 | -64.08516 | 36095 ft | 435 kts | 326° |
| 2026-05-07 15:02 | 14.95438 | -64.11715 | 36096 ft | 434 kts | 326° |
| 2026-05-07 15:03 | 15.00151 | -64.15550 | 36097 ft | 430 kts | 313° |
| 2026-05-07 15:03 | 15.03922 | -64.20318 | 36099 ft | 428 kts | 306° |
| 2026-05-07 15:04 | 15.07505 | -64.25248 | 36099 ft | 428 kts | 306° |
| 2026-05-07 15:04 | 15.11045 | -64.30198 | 36101 ft | 429 kts | 306° |
| 2026-05-07 15:05 | 15.14584 | -64.35166 | 36102 ft | 428 kts | 306° |
| 2026-05-07 15:05 | 15.18114 | -64.40135 | 36102 ft | 428 kts | 306° |
| 2026-05-07 15:06 | 15.21633 | -64.45099 | 36102 ft | 428 kts | 306° |
| 2026-05-07 15:06 | 15.25158 | -64.50077 | 36103 ft | 429 kts | 306° |
| 2026-05-07 15:07 | 15.28680 | -64.55057 | 36103 ft | 428 kts | 306° |
| 2026-05-07 15:07 | 15.32198 | -64.60035 | 36104 ft | 428 kts | 306° |
| 2026-05-07 15:08 | 15.35716 | -64.65017 | 36104 ft | 428 kts | 306° |
| 2026-05-07 15:08 | 15.39232 | -64.70000 | 36098 ft | 428 kts | 306° |
| 2026-05-07 15:09 | 15.42741 | -64.74976 | 36098 ft | 428 kts | 306° |
| 2026-05-07 15:09 | 15.46262 | -64.79971 | 36098 ft | 428 kts | 306° |
| 2026-05-07 15:10 | 15.49776 | -64.84961 | 36100 ft | 428 kts | 306° |
| 2026-05-07 15:10 | 15.53287 | -64.89951 | 36103 ft | 428 kts | 306° |
| 2026-05-07 15:11 | 15.56775 | -64.94910 | 36107 ft | 428 kts | 306° |
| 2026-05-07 15:11 | 15.60283 | -64.99901 | 36108 ft | 428 kts | 306° |
| 2026-05-07 15:12 | 15.63794 | -65.04900 | 36109 ft | 428 kts | 307° |
| 2026-05-07 15:12 | 15.67306 | -65.09904 | 36110 ft | 428 kts | 307° |
| 2026-05-07 15:13 | 15.70818 | -65.14910 | 36110 ft | 428 kts | 307° |
| 2026-05-07 15:13 | 15.74324 | -65.19912 | 36111 ft | 429 kts | 307° |
| 2026-05-07 15:14 | 15.77829 | -65.24915 | 36112 ft | 429 kts | 307° |
| 2026-05-07 15:14 | 15.81320 | -65.29902 | 36113 ft | 429 kts | 307° |
| 2026-05-07 15:15 | 15.84831 | -65.34921 | 36113 ft | 429 kts | 307° |
| 2026-05-07 15:15 | 15.88332 | -65.39929 | 36114 ft | 429 kts | 307° |
| 2026-05-07 15:16 | 15.91836 | -65.44945 | 36114 ft | 428 kts | 308° |
| 2026-05-07 15:16 | 15.95335 | -65.49958 | 36115 ft | 429 kts | 308° |
| 2026-05-07 15:17 | 15.98844 | -65.54987 | 36116 ft | 429 kts | 308° |
| 2026-05-07 15:17 | 16.02352 | -65.60020 | 36107 ft | 429 kts | 308° |
| 2026-05-07 15:18 | 16.05828 | -65.65009 | 36104 ft | 429 kts | 308° |
| 2026-05-07 15:18 | 16.09349 | -65.70066 | 36103 ft | 429 kts | 308° |
| 2026-05-07 15:19 | 16.12825 | -65.75063 | 36103 ft | 429 kts | 308° |
| 2026-05-07 15:19 | 16.16322 | -65.80093 | 36103 ft | 429 kts | 308° |
| 2026-05-07 15:20 | 16.19819 | -65.85126 | 36104 ft | 429 kts | 308° |
| 2026-05-07 15:20 | 16.23310 | -65.90155 | 36104 ft | 429 kts | 308° |
| 2026-05-07 15:21 | 16.26805 | -65.95192 | 36104 ft | 429 kts | 308° |
| 2026-05-07 15:21 | 16.30298 | -66.00230 | 36104 ft | 429 kts | 308° |
| 2026-05-07 15:22 | 16.33791 | -66.05273 | 36105 ft | 429 kts | 308° |
| 2026-05-07 15:22 | 16.37280 | -66.10312 | 36105 ft | 429 kts | 308° |
| 2026-05-07 15:23 | 16.40777 | -66.15367 | 36105 ft | 429 kts | 308° |
| 2026-05-07 15:23 | 16.44263 | -66.20408 | 36105 ft | 429 kts | 309° |
| 2026-05-07 15:24 | 16.47751 | -66.25459 | 36107 ft | 429 kts | 309° |
| 2026-05-07 15:24 | 16.51240 | -66.30512 | 36108 ft | 429 kts | 309° |
| 2026-05-07 15:25 | 16.54707 | -66.35538 | 36108 ft | 429 kts | 309° |
| 2026-05-07 15:25 | 16.58190 | -66.40590 | 36108 ft | 429 kts | 309° |
| 2026-05-07 15:26 | 16.61674 | -66.45647 | 36108 ft | 430 kts | 309° |
| 2026-05-07 15:26 | 16.65155 | -66.50704 | 36108 ft | 429 kts | 309° |
| 2026-05-07 15:27 | 16.68642 | -66.55773 | 36108 ft | 430 kts | 309° |
| 2026-05-07 15:27 | 16.72127 | -66.60843 | 36104 ft | 430 kts | 309° |
| 2026-05-07 15:28 | 16.75606 | -66.65907 | 36104 ft | 429 kts | 310° |
| 2026-05-07 15:28 | 16.79087 | -66.70979 | 36104 ft | 429 kts | 310° |
| 2026-05-07 15:29 | 16.82569 | -66.76055 | 36104 ft | 430 kts | 310° |
| 2026-05-07 15:29 | 16.86051 | -66.81135 | 36105 ft | 430 kts | 310° |
| 2026-05-07 15:30 | 16.89527 | -66.86210 | 36106 ft | 429 kts | 310° |
| 2026-05-07 15:30 | 16.93004 | -66.91291 | 36106 ft | 430 kts | 310° |
| 2026-05-07 15:31 | 16.96456 | -66.96338 | 36106 ft | 429 kts | 310° |
| 2026-05-07 15:31 | 16.99926 | -67.01415 | 36107 ft | 430 kts | 310° |
| 2026-05-07 15:32 | 17.03400 | -67.06502 | 36107 ft | 429 kts | 310° |
| 2026-05-07 15:32 | 17.06864 | -67.11579 | 36107 ft | 429 kts | 310° |
| 2026-05-07 15:33 | 17.10331 | -67.16664 | 36102 ft | 429 kts | 310° |
| 2026-05-07 15:33 | 17.13210 | -67.20891 | 36100 ft | 429 kts | 310° |
| 2026-05-07 15:34 | 17.16669 | -67.25972 | 36100 ft | 429 kts | 310° |
| 2026-05-07 15:34 | 17.20130 | -67.31062 | 36094 ft | 428 kts | 310° |
| 2026-05-07 15:35 | 17.23589 | -67.36150 | 36094 ft | 429 kts | 310° |
| 2026-05-07 15:35 | 17.27047 | -67.41240 | 36095 ft | 428 kts | 310° |
| 2026-05-07 15:36 | 17.30488 | -67.46307 | 36094 ft | 428 kts | 311° |
| 2026-05-07 15:36 | 17.33943 | -67.51393 | 36095 ft | 427 kts | 311° |
| 2026-05-07 15:37 | 17.37382 | -67.56464 | 36096 ft | 427 kts | 311° |
| 2026-05-07 15:37 | 17.40815 | -67.61535 | 36107 ft | 426 kts | 311° |
| 2026-05-07 15:38 | 17.44224 | -67.66575 | 36117 ft | 427 kts | 311° |
| 2026-05-07 15:38 | 17.47653 | -67.71644 | 36118 ft | 426 kts | 311° |
| 2026-05-07 15:39 | 17.51081 | -67.76713 | 36118 ft | 426 kts | 311° |
| 2026-05-07 15:39 | 17.54502 | -67.81778 | 36118 ft | 426 kts | 311° |
| 2026-05-07 15:40 | 17.57920 | -67.86845 | 36117 ft | 426 kts | 311° |
| 2026-05-07 15:40 | 17.61335 | -67.91908 | 36117 ft | 425 kts | 311° |
| 2026-05-07 15:41 | 17.64670 | -67.97047 | 36113 ft | 430 kts | 306° |
| 2026-05-07 15:41 | 17.66669 | -68.03049 | 36115 ft | 448 kts | 286° |
| 2026-05-07 15:42 | 17.67320 | -68.09606 | 36116 ft | 452 kts | 282° |
| 2026-05-07 15:42 | 17.67913 | -68.16168 | 36115 ft | 452 kts | 282° |
| 2026-05-07 15:43 | 17.68494 | -68.22733 | 36114 ft | 452 kts | 282° |
| 2026-05-07 15:43 | 17.69065 | -68.29303 | 36114 ft | 452 kts | 282° |
| 2026-05-07 15:44 | 17.69630 | -68.35870 | 36114 ft | 452 kts | 282° |
| 2026-05-07 15:44 | 17.70188 | -68.42410 | 36110 ft | 452 kts | 282° |
| 2026-05-07 15:45 | 17.70735 | -68.48904 | 36109 ft | 452 kts | 282° |
| 2026-05-07 15:45 | 17.71285 | -68.55480 | 36109 ft | 453 kts | 282° |
| 2026-05-07 15:46 | 17.72093 | -68.65357 | 36108 ft | 453 kts | 281° |
| 2026-05-07 15:47 | 17.72625 | -68.71942 | 36109 ft | 453 kts | 281° |
| 2026-05-07 15:47 | 17.73142 | -68.78530 | 36109 ft | 453 kts | 281° |
| 2026-05-07 15:48 | 17.73661 | -68.85122 | 36108 ft | 452 kts | 281° |
| 2026-05-07 15:48 | 17.74179 | -68.91686 | 36109 ft | 452 kts | 281° |
| 2026-05-07 15:49 | 17.74700 | -68.98268 | 36110 ft | 454 kts | 281° |
| 2026-05-07 15:49 | 17.75221 | -69.04861 | 36110 ft | 453 kts | 281° |
| 2026-05-07 15:50 | 17.75742 | -69.11457 | 36110 ft | 453 kts | 281° |
| 2026-05-07 15:50 | 17.76260 | -69.18038 | 36110 ft | 452 kts | 281° |
| 2026-05-07 15:51 | 17.76711 | -69.24630 | 36110 ft | 453 kts | 280° |
| 2026-05-07 15:51 | 17.77126 | -69.31188 | 36110 ft | 453 kts | 280° |
| 2026-05-07 15:52 | 17.77552 | -69.37785 | 36110 ft | 453 kts | 281° |
| 2026-05-07 15:52 | 17.78071 | -69.44380 | 36110 ft | 454 kts | 281° |
| 2026-05-07 15:53 | 17.78600 | -69.50971 | 36111 ft | 453 kts | 281° |
| 2026-05-07 15:53 | 17.79127 | -69.57546 | 36110 ft | 452 kts | 281° |
| 2026-05-07 15:54 | 17.79654 | -69.64121 | 36110 ft | 452 kts | 281° |
| 2026-05-07 15:54 | 17.80181 | -69.70711 | 36110 ft | 452 kts | 281° |
| 2026-05-07 15:55 | 17.80706 | -69.77285 | 36110 ft | 453 kts | 281° |
| 2026-05-07 15:55 | 17.81232 | -69.83889 | 36110 ft | 453 kts | 281° |
| 2026-05-07 15:56 | 17.81752 | -69.90444 | 36110 ft | 453 kts | 281° |
| 2026-05-07 15:56 | 17.82241 | -69.97051 | 36110 ft | 454 kts | 281° |
| 2026-05-07 15:57 | 17.82666 | -70.03662 | 36103 ft | 454 kts | 280° |
| 2026-05-07 15:57 | 17.83088 | -70.10275 | 36101 ft | 454 kts | 280° |
| 2026-05-07 15:58 | 17.83508 | -70.16901 | 36098 ft | 454 kts | 280° |
| 2026-05-07 15:58 | 17.83924 | -70.23510 | 36097 ft | 454 kts | 280° |
| 2026-05-07 15:59 | 17.84340 | -70.30126 | 36095 ft | 453 kts | 280° |
| 2026-05-07 15:59 | 17.84750 | -70.36640 | 36094 ft | 455 kts | 280° |
| 2026-05-07 16:00 | 17.85193 | -70.43221 | 36093 ft | 454 kts | 280° |
| 2026-05-07 16:00 | 17.85645 | -70.49821 | 36091 ft | 453 kts | 280° |
| 2026-05-07 16:01 | 17.86099 | -70.56415 | 36090 ft | 453 kts | 280° |
| 2026-05-07 16:01 | 17.86554 | -70.63021 | 36088 ft | 454 kts | 280° |
| 2026-05-07 16:02 | 17.87007 | -70.69627 | 36087 ft | 453 kts | 280° |
| 2026-05-07 16:02 | 17.87460 | -70.76215 | 36086 ft | 453 kts | 280° |
| 2026-05-07 16:03 | 17.87910 | -70.82805 | 36085 ft | 453 kts | 280° |
| 2026-05-07 16:03 | 17.88360 | -70.89397 | 36084 ft | 452 kts | 280° |
| 2026-05-07 16:04 | 17.88805 | -70.95941 | 36083 ft | 451 kts | 280° |
| 2026-05-07 16:04 | 17.89219 | -71.02055 | 36083 ft | 451 kts | 280° |
| 2026-05-07 16:05 | 17.89666 | -71.08677 | 36083 ft | 452 kts | 279° |
| 2026-05-07 16:05 | 17.90105 | -71.15222 | 36080 ft | 451 kts | 280° |
| 2026-05-07 16:06 | 17.90547 | -71.21747 | 36079 ft | 451 kts | 279° |
| 2026-05-07 16:06 | 17.90983 | -71.28247 | 36078 ft | 450 kts | 279° |
| 2026-05-07 16:07 | 17.91417 | -71.34741 | 36078 ft | 450 kts | 279° |
| 2026-05-07 16:07 | 17.91844 | -71.41185 | 36077 ft | 450 kts | 279° |
| 2026-05-07 16:08 | 17.92260 | -71.47507 | 36076 ft | 450 kts | 279° |
| 2026-05-07 16:08 | 17.92685 | -71.53994 | 36073 ft | 450 kts | 279° |
| 2026-05-07 16:09 | 17.93111 | -71.60549 | 36073 ft | 450 kts | 279° |
| 2026-05-07 16:09 | 17.93345 | -71.66862 | 36072 ft | 453 kts | 274° |
| 2026-05-07 16:10 | 17.93165 | -71.73361 | 36069 ft | 454 kts | 273° |
| 2026-05-07 16:10 | 17.92977 | -71.79958 | 36067 ft | 453 kts | 274° |
| 2026-05-07 16:11 | 17.92799 | -71.86436 | 36065 ft | 453 kts | 274° |
| 2026-05-07 16:11 | 17.92625 | -71.92844 | 36064 ft | 453 kts | 274° |
| 2026-05-07 16:12 | 17.92422 | -71.99437 | 36067 ft | 454 kts | 273° |
| 2026-05-07 16:12 | 17.92224 | -72.05507 | 36061 ft | 453 kts | 273° |
| 2026-05-07 16:13 | 17.92026 | -72.11536 | 36060 ft | 453 kts | 273° |
| 2026-05-07 16:13 | 17.91809 | -72.18156 | 36058 ft | 453 kts | 273° |
| 2026-05-07 16:14 | 17.91599 | -72.24621 | 36058 ft | 453 kts | 273° |
| 2026-05-07 16:14 | 17.91430 | -72.29836 | 36057 ft | 453 kts | 273° |
| 2026-05-07 16:15 | 17.91186 | -72.37414 | 36052 ft | 454 kts | 273° |
| 2026-05-07 16:15 | 17.90981 | -72.43708 | 36051 ft | 454 kts | 273° |
| 2026-05-07 16:16 | 17.90780 | -72.49885 | 36052 ft | 454 kts | 273° |
| 2026-05-07 16:16 | 17.90570 | -72.56031 | 36052 ft | 454 kts | 272° |
| 2026-05-07 16:17 | 17.90352 | -72.62216 | 36052 ft | 454 kts | 272° |
| 2026-05-07 16:17 | 17.90147 | -72.68073 | 36052 ft | 454 kts | 272° |
| 2026-05-07 16:18 | 17.89920 | -72.74614 | 36052 ft | 455 kts | 272° |
| 2026-05-07 16:18 | 17.89755 | -72.79410 | 36052 ft | 455 kts | 272° |
| 2026-05-07 16:19 | 17.89532 | -72.86287 | 36052 ft | 455 kts | 272° |
| 2026-05-07 16:19 | 17.89380 | -72.90923 | 36258 ft | 447 kts | 273° |
| 2026-05-07 16:19 | 17.89278 | -72.94240 | 35390 ft | 458 kts | 272° |
| 2026-05-07 16:20 | 17.89173 | -72.97488 | 35632 ft | 443 kts | 272° |
| 2026-05-07 16:20 | 17.89069 | -73.00705 | 35945 ft | 442 kts | 272° |
| 2026-05-07 16:20 | 17.88967 | -73.03938 | 36027 ft | 446 kts | 272° |
| 2026-05-07 16:21 | 17.88760 | -73.10533 | 36054 ft | 456 kts | 272° |
| 2026-05-07 16:21 | 17.88546 | -73.17185 | 36055 ft | 456 kts | 272° |
| 2026-05-07 16:22 | 17.88331 | -73.23841 | 36055 ft | 456 kts | 272° |
| 2026-05-07 16:22 | 17.88113 | -73.30490 | 36056 ft | 456 kts | 272° |
| 2026-05-07 16:23 | 17.87878 | -73.37144 | 36056 ft | 456 kts | 272° |
| 2026-05-07 16:23 | 17.87636 | -73.43791 | 36057 ft | 456 kts | 272° |
| 2026-05-07 16:24 | 17.87395 | -73.50445 | 36055 ft | 456 kts | 271° |
| 2026-05-07 16:24 | 17.87156 | -73.57056 | 36056 ft | 456 kts | 271° |
| 2026-05-07 16:25 | 17.86914 | -73.63717 | 36056 ft | 456 kts | 271° |
| 2026-05-07 16:25 | 17.86673 | -73.70370 | 36056 ft | 456 kts | 271° |
| 2026-05-07 16:26 | 17.86429 | -73.77023 | 36057 ft | 456 kts | 271° |
| 2026-05-07 16:26 | 17.86185 | -73.83684 | 36057 ft | 456 kts | 271° |
| 2026-05-07 16:27 | 17.85939 | -73.90335 | 36058 ft | 456 kts | 271° |
| 2026-05-07 16:27 | 17.85691 | -73.96986 | 36059 ft | 456 kts | 271° |
| 2026-05-07 16:28 | 17.85441 | -74.03645 | 36060 ft | 456 kts | 271° |
| 2026-05-07 16:28 | 17.85189 | -74.10300 | 36060 ft | 456 kts | 271° |
| 2026-05-07 16:29 | 17.84996 | -74.16959 | 36061 ft | 456 kts | 272° |
| 2026-05-07 16:29 | 17.84877 | -74.23603 | 36061 ft | 456 kts | 272° |
| 2026-05-07 16:30 | 17.84761 | -74.30250 | 36062 ft | 455 kts | 272° |
| 2026-05-07 16:30 | 17.84704 | -74.33581 | 35904 ft | 458 kts | 272° |
| 2026-05-07 16:30 | 17.84646 | -74.36919 | 35653 ft | 457 kts | 272° |
| 2026-05-07 16:30 | 17.84589 | -74.40242 | 35403 ft | 455 kts | 272° |
| 2026-05-07 16:31 | 17.84532 | -74.43568 | 34864 ft | 456 kts | 272° |
| 2026-05-07 16:31 | 17.84476 | -74.46901 | 34149 ft | 458 kts | 273° |
| 2026-05-07 16:31 | 17.84421 | -74.50238 | 33715 ft | 454 kts | 273° |
| 2026-05-07 16:31 | 17.84366 | -74.53461 | 33637 ft | 441 kts | 273° |
| 2026-05-07 16:32 | 17.84309 | -74.56680 | 33557 ft | 430 kts | 273° |
| 2026-05-07 16:32 | 17.84198 | -74.62911 | 33408 ft | 432 kts | 273° |
| 2026-05-07 16:33 | 17.84080 | -74.69215 | 33258 ft | 431 kts | 272° |
| 2026-05-07 16:33 | 17.83952 | -74.75500 | 33107 ft | 430 kts | 272° |
| 2026-05-07 16:34 | 17.83827 | -74.81763 | 32957 ft | 429 kts | 272° |
| 2026-05-07 16:34 | 17.83704 | -74.88013 | 32807 ft | 428 kts | 272° |
| 2026-05-07 16:35 | 17.83582 | -74.94258 | 32656 ft | 427 kts | 272° |
| 2026-05-07 16:35 | 17.83460 | -75.00480 | 32506 ft | 426 kts | 272° |
| 2026-05-07 16:36 | 17.83338 | -75.06694 | 32356 ft | 425 kts | 272° |
| 2026-05-07 16:36 | 17.83214 | -75.12893 | 32205 ft | 424 kts | 272° |
| 2026-05-07 16:37 | 17.83090 | -75.19080 | 32055 ft | 424 kts | 272° |
| 2026-05-07 16:37 | 17.82964 | -75.25252 | 31905 ft | 422 kts | 272° |
| 2026-05-07 16:38 | 17.82837 | -75.31361 | 31720 ft | 422 kts | 272° |
| 2026-05-07 16:38 | 17.82773 | -75.34446 | 31309 ft | 423 kts | 272° |
| 2026-05-07 16:38 | 17.82707 | -75.37530 | 30874 ft | 421 kts | 272° |
| 2026-05-07 16:38 | 17.82642 | -75.40589 | 30444 ft | 418 kts | 272° |
| 2026-05-07 16:39 | 17.82576 | -75.43626 | 30017 ft | 415 kts | 272° |
| 2026-05-07 16:39 | 17.82509 | -75.46644 | 29601 ft | 413 kts | 272° |
| 2026-05-07 16:39 | 17.82442 | -75.49651 | 29172 ft | 410 kts | 272° |
| 2026-05-07 16:39 | 17.82375 | -75.52634 | 28753 ft | 408 kts | 272° |
| 2026-05-07 16:40 | 17.82307 | -75.55599 | 28336 ft | 405 kts | 272° |
| 2026-05-07 16:40 | 17.82240 | -75.58550 | 27921 ft | 403 kts | 272° |
| 2026-05-07 16:40 | 17.82173 | -75.61480 | 27510 ft | 401 kts | 272° |
| 2026-05-07 16:40 | 17.82106 | -75.64400 | 27100 ft | 399 kts | 272° |
| 2026-05-07 16:41 | 17.82039 | -75.67307 | 26692 ft | 397 kts | 273° |
| 2026-05-07 16:41 | 17.81972 | -75.70190 | 26288 ft | 395 kts | 273° |
| 2026-05-07 16:41 | 17.81904 | -75.73070 | 25884 ft | 393 kts | 273° |
| 2026-05-07 16:41 | 17.81837 | -75.75925 | 25486 ft | 391 kts | 273° |
| 2026-05-07 16:42 | 17.81769 | -75.78778 | 25088 ft | 390 kts | 273° |
| 2026-05-07 16:42 | 17.81703 | -75.81574 | 24698 ft | 388 kts | 273° |
| 2026-05-07 16:42 | 17.81636 | -75.84396 | 24306 ft | 386 kts | 273° |
| 2026-05-07 16:42 | 17.81569 | -75.87209 | 23913 ft | 385 kts | 273° |
| 2026-05-07 16:43 | 17.81501 | -75.90012 | 23525 ft | 383 kts | 273° |
| 2026-05-07 16:43 | 17.81433 | -75.92803 | 23141 ft | 381 kts | 273° |
| 2026-05-07 16:43 | 17.81322 | -75.95586 | 22754 ft | 381 kts | 269° |
| 2026-05-07 16:43 | 17.80892 | -75.98328 | 22384 ft | 382 kts | 261° |
| 2026-05-07 16:44 | 17.80326 | -76.01054 | 22001 ft | 381 kts | 261° |
| 2026-05-07 16:44 | 17.79758 | -76.03765 | 21622 ft | 379 kts | 261° |
| 2026-05-07 16:44 | 17.79188 | -76.06467 | 21246 ft | 378 kts | 261° |
| 2026-05-07 16:44 | 17.78627 | -76.09122 | 20877 ft | 376 kts | 260° |
| 2026-05-07 16:45 | 17.78062 | -76.11795 | 20508 ft | 375 kts | 260° |
| 2026-05-07 16:45 | 17.77494 | -76.14465 | 20138 ft | 373 kts | 260° |
| 2026-05-07 16:45 | 17.76931 | -76.17115 | 19773 ft | 372 kts | 259° |
| 2026-05-07 16:45 | 17.76368 | -76.19757 | 19409 ft | 370 kts | 259° |
| 2026-05-07 16:46 | 17.75806 | -76.22389 | 19048 ft | 369 kts | 259° |
| 2026-05-07 16:46 | 17.75246 | -76.25008 | 18689 ft | 367 kts | 259° |
| 2026-05-07 16:46 | 17.74688 | -76.27620 | 18333 ft | 366 kts | 259° |
| 2026-05-07 16:46 | 17.74132 | -76.30215 | 17978 ft | 364 kts | 259° |
| 2026-05-07 16:47 | 17.73578 | -76.32799 | 17625 ft | 363 kts | 258° |
| 2026-05-07 16:47 | 17.73026 | -76.35373 | 17274 ft | 361 kts | 258° |
| 2026-05-07 16:47 | 17.72474 | -76.37944 | 16923 ft | 360 kts | 258° |
| 2026-05-07 16:47 | 17.71926 | -76.40497 | 16576 ft | 359 kts | 258° |
| 2026-05-07 16:48 | 17.71379 | -76.43043 | 16229 ft | 357 kts | 258° |
| 2026-05-07 16:48 | 17.70833 | -76.45585 | 15882 ft | 356 kts | 258° |
| 2026-05-07 16:48 | 17.70289 | -76.48112 | 15538 ft | 355 kts | 258° |
| 2026-05-07 16:48 | 17.69745 | -76.50636 | 15192 ft | 354 kts | 258° |
| 2026-05-07 16:49 | 17.69203 | -76.53148 | 14847 ft | 352 kts | 258° |
| 2026-05-07 16:49 | 17.68663 | -76.55652 | 14504 ft | 351 kts | 257° |
| 2026-05-07 16:49 | 17.68125 | -76.58144 | 14160 ft | 349 kts | 257° |
| 2026-05-07 16:49 | 17.67590 | -76.60622 | 13818 ft | 348 kts | 257° |
| 2026-05-07 16:50 | 17.67056 | -76.63088 | 13476 ft | 346 kts | 257° |
| 2026-05-07 16:50 | 17.66526 | -76.65539 | 13134 ft | 343 kts | 257° |
| 2026-05-07 16:50 | 17.65999 | -76.67970 | 12760 ft | 340 kts | 257° |
| 2026-05-07 16:50 | 17.65478 | -76.70364 | 12406 ft | 334 kts | 257° |
| 2026-05-07 16:51 | 17.65067 | -76.72724 | 12193 ft | 328 kts | 261° |
| 2026-05-07 16:51 | 17.64816 | -76.75079 | 11670 ft | 329 kts | 265° |
| 2026-05-07 16:51 | 17.64731 | -76.77467 | 11169 ft | 327 kts | 269° |
| 2026-05-07 16:51 | 17.64815 | -76.79850 | 10668 ft | 326 kts | 274° |
| 2026-05-07 16:52 | 17.65070 | -76.82187 | 10187 ft | 319 kts | 278° |
| 2026-05-07 16:52 | 17.65483 | -76.84448 | 9734 ft | 311 kts | 282° |
| 2026-05-07 16:52 | 17.66045 | -76.86625 | 9286 ft | 309 kts | 287° |
| 2026-05-07 16:52 | 17.66760 | -76.88745 | 8835 ft | 308 kts | 291° |
| 2026-05-07 16:53 | 17.67621 | -76.90796 | 8385 ft | 306 kts | 296° |
| 2026-05-07 16:53 | 17.68620 | -76.92758 | 7934 ft | 304 kts | 300° |
| 2026-05-07 16:53 | 17.69747 | -76.94624 | 7484 ft | 302 kts | 305° |
| 2026-05-07 16:53 | 17.70998 | -76.96389 | 7033 ft | 299 kts | 310° |
| 2026-05-07 16:54 | 17.72352 | -76.98032 | 6582 ft | 296 kts | 314° |
| 2026-05-07 16:54 | 17.73799 | -76.99550 | 6132 ft | 293 kts | 319° |
| 2026-05-07 16:54 | 17.75335 | -77.00944 | 5680 ft | 290 kts | 323° |
| 2026-05-07 16:54 | 17.76937 | -77.02199 | 5231 ft | 286 kts | 328° |
| 2026-05-07 16:55 | 17.78605 | -77.03324 | 4780 ft | 283 kts | 332° |
| 2026-05-07 16:55 | 17.80320 | -77.04311 | 4331 ft | 279 kts | 336° |
| 2026-05-07 16:55 | 17.82071 | -77.05159 | 4084 ft | 275 kts | 340° |
| 2026-05-07 16:55 | 17.83853 | -77.05873 | 4021 ft | 273 kts | 344° |
| 2026-05-07 16:56 | 17.85654 | -77.06456 | 4003 ft | 269 kts | 348° |
| 2026-05-07 16:56 | 17.87469 | -77.06908 | 4001 ft | 266 kts | 352° |
| 2026-05-07 16:56 | 17.91112 | -77.07425 | 3999 ft | 263 kts | 359° |
| 2026-05-07 16:57 | 17.92935 | -77.07495 | 4001 ft | 262 kts | 3° |
| 2026-05-07 16:57 | 17.94754 | -77.07442 | 4001 ft | 261 kts | 7° |
| 2026-05-07 16:57 | 17.96553 | -77.07267 | 3999 ft | 259 kts | 11° |
| 2026-05-07 16:57 | 17.98329 | -77.06973 | 4002 ft | 258 kts | 14° |
| 2026-05-07 16:58 | 18.00052 | -77.06572 | 3997 ft | 255 kts | 18° |
| 2026-05-07 16:58 | 18.01742 | -77.06013 | 3993 ft | 253 kts | 29° |
| 2026-05-07 16:58 | 18.02918 | -77.05073 | 3986 ft | 231 kts | 53° |
| 2026-05-07 16:58 | 18.03572 | -77.03629 | 4005 ft | 215 kts | 81° |
| 2026-05-07 16:59 | 18.03477 | -77.02078 | 3754 ft | 214 kts | 108° |
| 2026-05-07 16:59 | 18.02920 | -77.00644 | 3463 ft | 208 kts | 111° |
| 2026-05-07 16:59 | 18.02376 | -76.99282 | 3259 ft | 196 kts | 112° |
| 2026-05-07 16:59 | 18.01849 | -76.98009 | 3095 ft | 183 kts | 113° |
| 2026-05-07 17:00 | 18.01341 | -76.96807 | 2944 ft | 179 kts | 113° |
| 2026-05-07 17:00 | 18.00821 | -76.95625 | 2781 ft | 178 kts | 114° |
| 2026-05-07 17:00 | 18.00316 | -76.94440 | 2625 ft | 177 kts | 113° |
| 2026-05-07 17:00 | 17.99824 | -76.93285 | 2478 ft | 162 kts | 113° |
| 2026-05-07 17:01 | 17.99430 | -76.92263 | 2343 ft | 142 kts | 111° |
| 2026-05-07 17:01 | 17.99046 | -76.91338 | 2226 ft | 135 kts | 112° |
| 2026-05-07 17:01 | 17.98659 | -76.90448 | 2112 ft | 133 kts | 113° |
| 2026-05-07 17:01 | 17.98267 | -76.89558 | 1962 ft | 134 kts | 113° |
| 2026-05-07 17:02 | 17.97873 | -76.88670 | 1775 ft | 133 kts | 113° |
| 2026-05-07 17:02 | 17.97377 | -76.87864 | 1586 ft | 133 kts | 124° |
| 2026-05-07 17:02 | 17.96831 | -76.87073 | 1415 ft | 136 kts | 120° |
| 2026-05-07 17:02 | 17.96425 | -76.86185 | 1264 ft | 135 kts | 112° |
| 2026-05-07 17:03 | 17.96083 | -76.85268 | 1096 ft | 135 kts | 111° |
| 2026-05-07 17:03 | 17.95742 | -76.84358 | 922 ft | 134 kts | 111° |
| 2026-05-07 17:03 | 17.95398 | -76.83448 | 727 ft | 134 kts | 111° |
| 2026-05-07 17:03 | 17.95046 | -76.82546 | 536 ft | 133 kts | 111° |
| 2026-05-07 17:04 | 17.94692 | -76.81646 | 373 ft | 133 kts | 111° |
| 2026-05-07 17:04 | 17.94345 | -76.80750 | 215 ft | 133 kts | 111° |
| 2026-05-07 17:04 | 17.93994 | -76.79849 | 51 ft | 132 kts | 111° |
| 2026-05-07 17:04 | 17.93678 | -76.79032 | 25 ft | 99 kts | 112° |
| 2026-05-07 17:05 | 17.93482 | -76.78532 | 25 ft | 46 kts | 112° |
| 2026-05-07 17:05 | 17.93412 | -76.78341 | 25 ft | 25 kts | 100° |
| 2026-05-07 17:05 | 17.93403 | -76.78172 | 25 ft | 21 kts | 81° |
| 2026-05-07 17:05 | 17.93418 | -76.78073 | 25 ft | 8 kts | 81° |
| 2026-05-07 17:06 | 17.93426 | -76.78021 | 25 ft | 7 kts | 80° |
| 2026-05-07 17:06 | 17.93433 | -76.77973 | 25 ft | 6 kts | 81° |
| 2026-05-07 17:06 | 17.93463 | -76.77945 | 25 ft | 6 kts | 25° |
| 2026-05-07 17:06 | 17.93497 | -76.77929 | 25 ft | 5 kts | 24° |
| 2026-05-07 17:07 | 17.93527 | -76.77915 | 25 ft | 4 kts | 25° |
| 2026-05-07 17:07 | 17.93554 | -76.77904 | 25 ft | 4 kts | 21° |
| 2026-05-07 17:07 | 17.93576 | -76.77899 | 25 ft | 3 kts | 356° |
| 2026-05-07 17:07 | 17.93589 | -76.77911 | 25 ft | 2 kts | 291° |
| 2026-05-07 17:08 | 17.93595 | -76.77925 | 25 ft | 2 kts | 292° |
| 2026-05-07 17:08 | 17.93598 | -76.77934 | 25 ft | 1 kts | 292° |
| 2026-05-07 17:08 | 17.93600 | -76.77939 | 25 ft | 0 kts | 292° |
| 2026-05-07 17:08 | 17.93602 | -76.77945 | 25 ft | 3 kts | 292° |
| 2026-05-07 17:09 | 17.93607 | -76.77957 | 25 ft | 0 kts | 292° |